Time;durP1;ratioP1;P1;durP2;ratioP2;P2;SDS_P1;SDS_P2;PMS_P1;PMS_P2;Temp;Humidity;BMP_temperature;BMP_pressure;BME280_temperature;BME280_humidity;BME280_pressure;Samples;Min_cycle;Max_cycle;Signal;HPM_P1;HPM_P2
2022/03/15 00:00:19;;;;;;;30.35;17.13;;;;;;;6.58;100.00;102514.97;5032317;28;20195;-43
2022/03/15 00:02:45;;;;;;;35.72;19.33;;;;;;;6.54;100.00;102531.81;5031631;28;20196;-44
2022/03/15 00:05:10;;;;;;;38.28;19.33;;;;;;;6.48;100.00;102545.09;5014990;28;20188;-43
2022/03/15 00:07:36;;;;;;;38.38;19.95;;;;;;;6.53;100.00;102538.00;5012559;28;20169;-45
2022/03/15 00:10:01;;;;;;;34.80;18.67;;;;;;;6.50;100.00;102547.78;5011735;28;20177;-44
2022/03/15 00:12:28;;;;;;;33.60;18.33;;;;;;;6.43;100.00;102540.59;5012126;28;20169;-44
2022/03/15 00:14:54;;;;;;;30.77;16.92;;;;;;;6.51;100.00;102545.09;5011936;28;20167;-45
2022/03/15 00:17:22;;;;;;;35.30;17.10;;;;;;;6.39;100.00;102548.56;5012561;28;20165;-45
2022/03/15 00:19:49;;;;;;;33.22;17.98;;;;;;;6.49;100.00;102559.28;5012732;28;20650;-45
2022/03/15 00:22:14;;;;;;;33.97;17.60;;;;;;;6.36;100.00;102545.00;5011512;28;20181;-44
2022/03/15 00:24:41;;;;;;;34.97;17.77;;;;;;;6.33;100.00;102552.97;5011890;28;20195;-46
2022/03/15 00:27:06;;;;;;;37.00;20.23;;;;;;;6.36;100.00;102545.91;5011857;28;20730;-46
2022/03/15 00:29:32;;;;;;;33.00;19.25;;;;;;;6.43;100.00;102552.16;5010617;28;20338;-48
2022/03/15 00:31:57;;;;;;;43.65;21.02;;;;;;;6.47;100.00;102543.31;5011773;28;20187;-46
2022/03/15 00:34:23;;;;;;;37.95;20.95;;;;;;;6.49;100.00;102560.16;5011262;28;20246;-44
2022/03/15 00:36:48;;;;;;;37.35;19.52;;;;;;;6.33;100.00;102556.50;5012083;28;20207;-44
2022/03/15 00:39:16;;;;;;;34.72;19.70;;;;;;;6.33;100.00;102563.63;5010416;28;20215;-44
2022/03/15 00:41:42;;;;;;;37.70;21.02;;;;;;;6.40;100.00;102558.34;5011160;28;20165;-46
2022/03/15 00:44:07;;;;;;;36.83;20.13;;;;;;;6.35;100.00;102562.75;5010018;28;20201;-43
2022/03/15 00:46:33;;;;;;;33.22;19.75;;;;;;;6.37;100.00;102562.75;5011293;28;20295;-43
2022/03/15 00:49:00;;;;;;;34.88;21.27;;;;;;;6.50;100.00;102563.75;5011207;28;20173;-43
2022/03/15 00:51:29;;;;;;;50.25;23.48;;;;;;;6.33;100.00;102567.16;5011844;28;20165;-44
2022/03/15 00:53:57;;;;;;;42.40;23.15;;;;;;;6.29;100.00;102564.47;5011240;28;20192;-45
2022/03/15 00:56:22;;;;;;;44.95;24.55;;;;;;;6.29;100.00;102572.47;5011568;28;20252;-44
2022/03/15 00:58:48;;;;;;;42.17;22.83;;;;;;;6.33;100.00;102571.59;5009906;28;20711;-45
2022/03/15 01:01:13;;;;;;;48.45;26.13;;;;;;;6.17;100.00;102574.16;5011426;28;20259;-45
2022/03/15 01:03:39;;;;;;;48.25;27.50;;;;;;;6.07;100.00;102569.63;5015401;28;20206;-44
2022/03/15 01:06:04;;;;;;;53.90;27.25;;;;;;;6.08;100.00;102573.16;5029465;28;20206;-45
2022/03/15 01:08:30;;;;;;;57.47;28.27;;;;;;;5.86;100.00;102570.31;5031118;28;20234;-44
2022/03/15 01:10:58;;;;;;;55.80;29.02;;;;;;;5.94;100.00;102573.94;5030796;28;20168;-45
2022/03/15 01:13:26;;;;;;;51.45;28.65;;;;;;;5.84;100.00;102580.03;5030885;28;20609;-44
2022/03/15 01:15:53;;;;;;;49.10;27.10;;;;;;;5.78;100.00;102586.19;5030523;28;20168;-44
2022/03/15 01:18:20;;;;;;;51.40;26.55;;;;;;;5.66;100.00;102582.50;5030709;28;20496;-44
2022/03/15 01:20:45;;;;;;;44.97;25.08;;;;;;;5.79;100.00;102581.75;5029952;28;20175;-43
2022/03/15 01:23:11;;;;;;;49.60;27.33;;;;;;;5.69;100.00;102586.09;5030113;28;20184;-43
2022/03/15 01:25:37;;;;;;;45.75;27.08;;;;;;;5.71;100.00;102600.28;5030618;28;20203;-44
2022/03/15 01:28:04;;;;;;;50.17;24.27;;;;;;;5.51;100.00;102601.81;5030565;28;20188;-43
2022/03/15 01:30:30;;;;;;;40.30;23.20;;;;;;;5.57;100.00;102601.91;5030278;28;20198;-43
2022/03/15 01:32:56;;;;;;;41.30;22.17;;;;;;;5.38;100.00;102590.19;5030274;28;20569;-44
2022/03/15 01:35:22;;;;;;;32.88;19.95;;;;;;;5.51;100.00;102602.75;5030363;28;20176;-42
2022/03/15 01:37:47;;;;;;;40.17;21.10;;;;;;;5.42;100.00;102588.44;5030516;28;20168;-44
2022/03/15 01:40:13;;;;;;;44.20;21.35;;;;;;;5.47;100.00;102595.59;5030197;28;20172;-44
2022/03/15 01:42:40;;;;;;;46.17;23.20;;;;;;;5.56;100.00;102594.81;5029906;28;20204;-44
2022/03/15 01:45:06;;;;;;;40.90;22.60;;;;;;;5.61;100.00;102578.91;5028893;28;20195;-45
2022/03/15 01:47:32;;;;;;;41.55;23.63;;;;;;;5.63;100.00;102580.69;5030173;28;20187;-44
2022/03/15 01:49:57;;;;;;;44.60;23.58;;;;;;;5.60;100.00;102586.00;5029091;28;20245;-43
2022/03/15 01:52:23;;;;;;;47.20;24.83;;;;;;;5.60;100.00;102579.78;5029088;28;20183;-45
2022/03/15 01:54:50;;;;;;;48.45;25.55;;;;;;;5.55;100.00;102574.41;5028643;28;20164;-42
2022/03/15 01:57:17;;;;;;;50.58;25.45;;;;;;;5.43;100.00;102580.50;5030280;28;20172;-44
2022/03/15 01:59:44;;;;;;;47.75;24.98;;;;;;;5.52;100.00;102585.91;5028097;28;20207;-43
2022/03/15 02:02:10;;;;;;;47.83;26.60;;;;;;;5.54;100.00;102580.63;5028620;28;20175;-45
2022/03/15 02:04:36;;;;;;;54.20;24.45;;;;;;;5.57;100.00;102573.56;5029725;28;20207;-43
2022/03/15 02:07:10;;;;;;;50.15;26.33;;;;;;;5.45;100.00;102584.06;5030019;28;20251;-44
2022/03/15 02:09:36;;;;;;;53.80;26.50;;;;;;;5.43;100.00;102575.19;5028714;28;20183;-44
2022/03/15 02:12:02;;;;;;;51.50;26.70;;;;;;;5.51;100.00;102561.94;5028614;28;20531;-45
2022/03/15 02:14:28;;;;;;;56.63;27.08;;;;;;;5.54;100.00;102567.31;5029500;28;20211;-43
2022/03/15 02:16:54;;;;;;;58.65;27.20;;;;;;;5.53;100.00;102562.84;5029847;28;20172;-44
2022/03/15 02:19:21;;;;;;;49.03;24.90;;;;;;;5.55;100.00;102567.34;5029655;28;20172;-43
2022/03/15 02:21:47;;;;;;;53.58;27.90;;;;;;;5.51;100.00;102567.25;5029827;28;20168;-45
2022/03/15 02:24:12;;;;;;;51.35;27.15;;;;;;;5.55;100.00;102583.31;5029497;28;20238;-45
2022/03/15 02:26:38;;;;;;;50.40;26.00;;;;;;;5.64;100.00;102570.94;5022287;28;20230;-43
2022/03/15 02:29:04;;;;;;;51.33;27.73;;;;;;;5.63;100.00;102583.38;5028474;28;20176;-44
2022/03/15 02:31:29;;;;;;;56.42;26.75;;;;;;;5.54;100.00;102576.19;5028805;28;20179;-45
2022/03/15 02:33:55;;;;;;;51.78;27.48;;;;;;;5.61;100.00;102585.09;5029225;28;20191;-44
2022/03/15 02:36:20;;;;;;;57.13;28.05;;;;;;;5.70;100.00;102582.53;5020805;28;20165;-44
2022/03/15 02:38:46;;;;;;;55.25;28.30;;;;;;;5.56;100.00;102587.72;5025995;28;20605;-44
2022/03/15 02:41:13;;;;;;;55.80;28.42;;;;;;;5.48;100.00;102588.50;5028971;28;20210;-42
2022/03/15 02:43:40;;;;;;;58.45;27.98;;;;;;;5.55;100.00;102583.31;5028606;28;20674;-45
2022/03/15 02:46:05;;;;;;;54.65;27.73;;;;;;;5.45;100.00;102577.84;5029446;28;20235;-44
2022/03/15 02:48:30;;;;;;;58.88;29.13;;;;;;;5.57;100.00;102573.56;5029464;28;20641;-44
2022/03/15 02:51:06;;;;;;;61.40;29.08;;;;;;;5.43;100.00;102566.31;5029113;28;20174;-45
2022/03/15 02:53:32;;;;;;;64.55;28.92;;;;;;;5.53;100.00;102577.06;5028315;28;20264;-44
2022/03/15 02:55:58;;;;;;;59.70;29.17;;;;;;;5.59;100.00;102576.22;5028969;28;20696;-44
2022/03/15 02:58:24;;;;;;;56.58;29.25;;;;;;;5.63;100.00;102572.72;5029544;28;20184;-44
2022/03/15 03:00:49;;;;;;;49.55;28.40;;;;;;;5.70;100.00;102579.00;5029732;28;20551;-44
2022/03/15 03:03:14;;;;;;;66.68;30.40;;;;;;;5.56;100.00;102576.22;5027405;28;20207;-43
2022/03/15 03:05:40;;;;;;;56.25;28.48;;;;;;;5.62;100.00;102568.28;5014103;28;20246;-44
2022/03/15 03:08:06;;;;;;;52.08;28.67;;;;;;;5.55;100.00;102570.00;5012557;28;20180;-45
2022/03/15 03:10:32;;;;;;;51.28;27.08;;;;;;;5.66;100.00;102577.19;5013572;28;20547;-45
2022/03/15 03:12:59;;;;;;;48.50;26.38;;;;;;;5.69;100.00;102579.88;5012791;28;20559;-43
2022/03/15 03:15:24;;;;;;;47.72;24.67;;;;;;;5.65;100.00;102589.59;5013646;28;20175;-44
2022/03/15 03:17:50;;;;;;;49.28;25.05;;;;;;;5.66;100.00;102593.13;5013612;28;20176;-44
2022/03/15 03:20:21;;;;;;;44.10;24.02;;;;;;;5.62;100.00;102596.63;5013534;28;20243;-43
2022/03/15 03:22:47;;;;;;;51.80;23.77;;;;;;;5.52;100.00;102587.69;5012961;28;20243;-43
2022/03/15 03:25:15;;;;;;;44.30;21.55;;;;;;;5.36;100.00;102597.25;5013076;28;20208;-43
2022/03/15 03:27:41;;;;;;;43.90;21.58;;;;;;;5.31;100.00;102593.63;5013687;28;20222;-43
2022/03/15 03:30:07;;;;;;;41.22;20.52;;;;;;;5.32;100.00;102606.06;5013368;28;20548;-43
2022/03/15 03:32:33;;;;;;;43.83;20.90;;;;;;;5.29;100.00;102598.94;5012471;28;20180;-44
2022/03/15 03:35:04;;;;;;;44.75;21.95;;;;;;;5.42;100.00;102594.63;5013046;28;20260;-44
2022/03/15 03:37:31;;;;;;;42.60;21.23;;;;;;;5.42;100.00;102596.41;5012803;28;20164;-44
2022/03/15 03:39:56;;;;;;;39.17;21.65;;;;;;;5.46;100.00;102600.91;5012849;28;20226;-44
2022/03/15 03:42:22;;;;;;;42.97;21.85;;;;;;;5.41;100.00;102607.94;5012411;28;20180;-45
2022/03/15 03:44:47;;;;;;;41.35;21.27;;;;;;;5.47;100.00;102602.69;5012825;28;20192;-45
2022/03/15 03:47:13;;;;;;;44.70;22.35;;;;;;;5.47;100.00;102595.59;5013181;28;20666;-43
2022/03/15 03:49:39;;;;;;;48.83;23.27;;;;;;;5.47;100.00;102592.94;5012396;28;20172;-44
2022/03/15 03:52:06;;;;;;;50.03;23.67;;;;;;;5.47;100.00;102597.38;5012661;28;20514;-43
2022/03/15 03:54:34;;;;;;;48.08;22.55;;;;;;;5.44;100.00;102602.63;5012476;28;20219;-43
2022/03/15 03:57:00;;;;;;;43.40;22.42;;;;;;;5.48;100.00;102607.13;5012461;28;20184;-44
2022/03/15 03:59:25;;;;;;;35.75;20.25;;;;;;;5.49;100.00;102608.94;5012825;28;20248;-44
2022/03/15 04:01:51;;;;;;;32.90;18.83;;;;;;;5.36;100.00;102616.75;5012277;28;20165;-44
2022/03/15 04:04:16;;;;;;;39.20;19.95;;;;;;;5.47;100.00;102605.34;5011801;28;20215;-44
2022/03/15 04:06:42;;;;;;;41.70;21.98;;;;;;;5.33;100.00;102614.03;5012363;28;20200;-42
2022/03/15 04:09:11;;;;;;;40.05;21.80;;;;;;;5.43;100.00;102608.84;5012374;28;20234;-44
2022/03/15 04:11:39;;;;;;;37.65;21.75;;;;;;;5.42;100.00;102615.03;5012049;28;20182;-43
2022/03/15 04:14:05;;;;;;;43.60;20.75;;;;;;;5.49;100.00;102608.94;5011765;28;20212;-45
2022/03/15 04:16:31;;;;;;;40.92;20.08;;;;;;;5.25;100.00;102607.75;5011471;28;20210;-44
2022/03/15 04:18:56;;;;;;;45.00;21.35;;;;;;;5.26;100.00;102613.94;5012218;28;20218;-42
2022/03/15 04:21:24;;;;;;;39.22;21.02;;;;;;;5.16;100.00;102615.63;5011940;28;20173;-44
2022/03/15 04:23:55;;;;;;;39.40;20.30;;;;;;;5.16;100.00;102623.59;5011595;28;20204;-43
2022/03/15 04:26:21;;;;;;;41.97;21.13;;;;;;;5.21;100.00;102624.53;5012280;28;20197;-44
2022/03/15 04:28:47;;;;;;;44.05;21.42;;;;;;;5.29;100.00;102624.59;5025975;28;20191;-44
2022/03/15 04:31:12;;;;;;;40.75;19.38;;;;;;;5.23;100.00;102621.91;5031363;28;20662;-42
2022/03/15 04:33:38;;;;;;;31.13;17.25;;;;;;;5.15;100.00;102624.44;5030987;28;20557;-43
2022/03/15 04:36:04;;;;;;;27.23;16.02;;;;;;;4.86;100.00;102624.94;5027295;28;20184;-43
2022/03/15 04:38:30;;;;;;;29.88;15.25;;;;;;;4.98;100.00;102618.00;5030834;28;20192;-45
2022/03/15 04:40:57;;;;;;;31.70;17.38;;;;;;;5.02;100.00;102619.84;5031476;28;20168;-43
2022/03/15 04:43:23;;;;;;;33.70;17.55;;;;;;;4.95;100.00;102629.50;5030552;28;20262;-43
2022/03/15 04:45:50;;;;;;;39.60;18.17;;;;;;;4.97;100.00;102622.44;5030757;28;20227;-45
2022/03/15 04:48:17;;;;;;;39.95;17.35;;;;;;;4.78;100.00;102621.28;5030322;28;20661;-43
2022/03/15 04:50:43;;;;;;;32.30;16.83;;;;;;;4.75;100.00;102624.78;5031060;28;20257;-42
2022/03/15 04:53:08;;;;;;;34.92;16.63;;;;;;;4.65;100.00;102617.53;5031227;28;20220;-43
2022/03/15 04:55:34;;;;;;;37.65;16.58;;;;;;;4.67;100.00;102626.41;5031412;28;20176;-44
2022/03/15 04:57:59;;;;;;;39.28;17.25;;;;;;;4.73;100.00;102625.63;5030904;28;20175;-44
2022/03/15 05:00:25;;;;;;;32.03;16.45;;;;;;;4.79;100.00;102627.47;5031099;28;20165;-43
2022/03/15 05:02:52;;;;;;;34.85;17.10;;;;;;;4.73;100.00;102629.16;5030069;28;20569;-43
2022/03/15 05:05:18;;;;;;;35.25;16.98;;;;;;;4.83;100.00;102630.22;5012656;28;20266;-43
2022/03/15 05:07:46;;;;;;;42.65;17.73;;;;;;;4.78;100.00;102629.25;5011048;28;20173;-44
2022/03/15 05:12:56;;;;;;;40.22;17.63;;;;;;;4.86;100.00;102635.56;5009779;28;20572;-44
2022/03/15 05:15:21;;;;;;;37.85;17.80;;;;;;;4.90;100.00;102631.19;5010515;28;20172;-43
2022/03/15 05:17:47;;;;;;;40.85;18.50;;;;;;;4.93;100.00;102633.88;5010625;28;20263;-43
2022/03/15 05:20:14;;;;;;;40.80;18.95;;;;;;;4.94;100.00;102633.91;5010718;28;20185;-44
2022/03/15 05:22:39;;;;;;;37.88;17.90;;;;;;;4.98;100.00;102636.59;5010508;28;20216;-49
2022/03/15 05:25:06;;;;;;;37.72;18.92;;;;;;;4.90;100.00;102636.50;5010955;28;20192;-44
2022/03/15 05:27:34;;;;;;;37.78;18.05;;;;;;;4.77;100.00;102638.09;5009476;28;20172;-49
2022/03/15 05:30:00;;;;;;;36.72;17.38;;;;;;;4.72;100.00;102637.09;5011338;28;20557;-47
2022/03/15 05:32:26;;;;;;;29.67;17.63;;;;;;;4.74;100.00;102643.34;5009297;28;20169;-47
2022/03/15 05:34:51;;;;;;;32.42;16.98;;;;;;;4.63;100.00;102652.91;5010940;28;20165;-44
2022/03/15 05:37:17;;;;;;;37.92;18.27;;;;;;;4.66;100.00;102647.66;5010804;28;20506;-45
2022/03/15 05:39:43;;;;;;;36.22;16.40;;;;;;;4.64;100.00;102650.28;5009514;28;20203;-45
2022/03/15 05:42:10;;;;;;;35.33;17.08;;;;;;;4.52;100.00;102642.09;5009949;28;20180;-48
2022/03/15 05:44:36;;;;;;;37.28;18.20;;;;;;;4.61;100.00;102638.72;5010177;28;20448;-45
2022/03/15 05:47:01;;;;;;;40.75;18.33;;;;;;;4.55;100.00;102636.88;5018659;23;20237;-48
2022/03/15 05:49:27;;;;;;;35.60;18.17;;;;;;;4.65;100.00;102636.13;5026603;28;20184;-46
2022/03/15 05:51:52;;;;;;;40.45;19.80;;;;;;;4.64;100.00;102634.34;5029849;28;20247;-44
2022/03/15 05:54:17;;;;;;;37.05;18.83;;;;;;;4.61;100.00;102633.41;5029659;28;20800;-43
2022/03/15 05:56:43;;;;;;;45.30;19.35;;;;;;;4.71;100.00;102632.69;5029977;28;20226;-45
2022/03/15 05:59:08;;;;;;;49.33;19.73;;;;;;;4.61;100.00;102639.59;5029910;28;20270;-44
2022/03/15 06:01:34;;;;;;;40.70;19.35;;;;;;;4.70;100.00;102641.50;5029600;28;20244;-43
2022/03/15 06:03:59;;;;;;;40.30;19.48;;;;;;;4.61;100.00;102642.25;5022482;28;20250;-45
2022/03/15 06:06:25;;;;;;;45.20;19.50;;;;;;;4.62;100.00;102641.41;5010055;28;20197;-43
2022/03/15 06:08:51;;;;;;;46.05;20.40;;;;;;;4.53;100.00;102638.59;5009932;28;20177;-43
2022/03/15 06:11:19;;;;;;;41.58;18.42;;;;;;;4.56;100.00;102645.72;5010165;28;20197;-43
2022/03/15 06:13:45;;;;;;;42.35;20.42;;;;;;;4.53;100.00;102635.94;5009519;28;20275;-44
2022/03/15 06:16:11;;;;;;;42.20;20.77;;;;;;;4.64;100.00;102636.13;5010140;28;20632;-44
2022/03/15 06:18:38;;;;;;;49.75;20.65;;;;;;;4.53;100.00;102636.84;5009734;28;20176;-45
2022/03/15 06:21:04;;;;;;;41.75;19.88;;;;;;;4.64;100.00;102641.44;5010258;28;20204;-47
2022/03/15 06:23:30;;;;;;;50.00;20.52;;;;;;;4.71;100.00;102640.66;5009462;28;20204;-44
2022/03/15 06:25:55;;;;;;;45.70;20.50;;;;;;;4.72;100.00;102635.38;5009627;28;20197;-44
2022/03/15 06:28:20;;;;;;;47.90;22.50;;;;;;;4.65;100.00;102646.75;5010028;28;20685;-44
2022/03/15 06:30:46;;;;;;;49.20;21.25;;;;;;;4.65;100.00;102633.47;5009886;28;20173;-50
2022/03/15 06:33:12;;;;;;;48.88;21.65;;;;;;;4.60;100.00;102645.78;5007842;28;20200;-44
2022/03/15 06:35:38;;;;;;;45.75;20.85;;;;;;;4.73;100.00;102644.22;5009632;28;20161;-44
2022/03/15 06:38:03;;;;;;;51.55;21.52;;;;;;;4.75;100.00;102648.69;5009836;28;20180;-45
2022/03/15 06:40:32;;;;;;;48.97;23.15;;;;;;;4.71;100.00;102644.19;5009141;28;20169;-45
2022/03/15 06:42:58;;;;;;;50.58;22.85;;;;;;;4.78;100.00;102646.94;5008490;28;20231;-45
2022/03/15 06:45:24;;;;;;;50.70;21.85;;;;;;;4.86;100.00;102630.25;5010143;28;20192;-44
2022/03/15 06:47:50;;;;;;;50.83;22.95;;;;;;;4.97;100.00;102638.38;5009855;28;20558;-44
2022/03/15 06:50:17;;;;;;;54.50;23.42;;;;;;;4.93;100.00;102641.84;5010428;28;20183;-44
2022/03/15 06:52:45;;;;;;;52.40;24.05;;;;;;;4.72;100.00;102638.03;5009236;28;20196;-50
2022/03/15 06:55:12;;;;;;;43.90;22.13;;;;;;;4.88;100.00;102639.13;5010073;28;20217;-44
2022/03/15 06:57:38;;;;;;;49.95;22.90;;;;;;;4.88;100.00;102636.47;5010001;28;20576;-46
2022/03/15 07:00:06;;;;;;;49.00;21.48;;;;;;;4.86;100.00;102638.22;5009788;28;20275;-48
2022/03/15 07:02:31;;;;;;;48.47;23.15;;;;;;;4.79;100.00;102639.00;5009399;28;20205;-47
2022/03/15 07:04:57;;;;;;;47.63;22.10;;;;;;;4.79;100.00;102640.75;5009687;28;20239;-44
2022/03/15 07:07:23;;;;;;;46.92;22.08;;;;;;;4.73;100.00;102647.75;5009685;28;20219;-45
2022/03/15 07:09:49;;;;;;;50.92;22.33;;;;;;;4.93;100.00;102642.72;5009425;28;20259;-46
2022/03/15 07:12:14;;;;;;;55.45;23.30;;;;;;;4.93;100.00;102641.84;5009685;28;20929;-44
2022/03/15 07:14:40;;;;;;;44.58;21.88;;;;;;;5.06;100.00;102634.94;5009560;28;20236;-47
2022/03/15 07:17:05;;;;;;;45.47;22.10;;;;;;;5.09;100.00;102640.28;5010015;28;20185;-44
2022/03/15 07:19:31;;;;;;;47.45;21.80;;;;;;;5.09;100.00;102643.84;5009682;28;20172;-43
2022/03/15 07:21:56;;;;;;;49.95;23.60;;;;;;;4.97;100.00;102637.50;5009153;28;20631;-51
2022/03/15 07:24:22;;;;;;;49.42;22.65;;;;;;;5.18;100.00;102650.16;5009103;28;20193;-44
2022/03/15 07:26:47;;;;;;;50.55;23.35;;;;;;;5.24;100.00;102658.22;5009527;28;20204;-44
2022/03/15 07:29:13;;;;;;;48.47;23.80;;;;;;;5.24;100.00;102661.75;5009617;28;20193;-46
2022/03/15 07:31:38;;;;;;;49.30;23.92;;;;;;;5.15;100.00;102662.53;5009257;28;20201;-48
2022/03/15 07:34:04;;;;;;;45.50;21.27;;;;;;;5.31;100.00;102660.06;5008924;28;20631;-44
2022/03/15 07:36:29;;;;;;;42.78;20.75;;;;;;;5.35;100.00;102656.59;5008202;28;20184;-47
2022/03/15 07:38:55;;;;;;;42.08;21.42;;;;;;;5.34;100.00;102661.00;5009110;28;20242;-52
2022/03/15 07:41:23;;;;;;;38.75;21.73;;;;;;;5.49;100.00;102656.78;5009487;28;20169;-45
2022/03/15 07:43:49;;;;;;;47.10;21.90;;;;;;;5.45;100.00;102662.94;5008757;28;20228;-44
2022/03/15 07:46:15;;;;;;;43.65;23.38;;;;;;;5.45;100.00;102671.78;5008933;28;20201;-48
2022/03/15 07:48:41;;;;;;;45.20;23.15;;;;;;;5.36;100.00;102664.59;5009134;28;20655;-47
2022/03/15 07:51:06;;;;;;;44.45;23.45;;;;;;;5.22;100.00;102671.47;5010111;28;20256;-44
2022/03/15 07:53:32;;;;;;;39.20;20.90;;;;;;;5.16;100.00;102661.66;5015295;28;20654;-48
2022/03/15 07:56:00;;;;;;;42.25;21.40;;;;;;;5.26;100.00;102672.41;5032175;28;20156;-48
2022/03/15 07:58:27;;;;;;;44.67;21.83;;;;;;;5.32;100.00;102681.34;5031580;28;20167;-45
2022/03/15 08:00:54;;;;;;;42.50;22.10;;;;;;;5.20;100.00;102674.97;5032452;28;20176;-44
2022/03/15 08:03:22;;;;;;;44.03;21.88;;;;;;;5.25;100.00;102671.53;5029380;28;20203;-43
2022/03/15 08:05:47;;;;;;;41.67;22.15;;;;;;;5.30;100.00;102677.78;5012205;28;20275;-43
2022/03/15 08:08:13;;;;;;;45.10;23.23;;;;;;;5.25;100.00;102674.19;5012459;28;20255;-44
2022/03/15 08:10:38;;;;;;;49.95;23.35;;;;;;;5.34;100.00;102681.41;5011908;28;20539;-47
2022/03/15 08:13:04;;;;;;;48.70;25.75;;;;;;;5.26;100.00;102673.31;5011429;28;20216;-43
2022/03/15 08:15:29;;;;;;;52.55;24.95;;;;;;;5.50;100.00;102671.84;5012123;28;20617;-45
2022/03/15 08:17:55;;;;;;;49.20;23.95;;;;;;;5.37;100.00;102671.66;5008859;28;20215;-45
2022/03/15 08:20:20;;;;;;;42.08;22.13;;;;;;;5.41;100.00;102671.72;5011639;28;20242;-50
2022/03/15 08:22:47;;;;;;;45.20;22.55;;;;;;;5.47;100.00;102669.16;5011519;28;20279;-43
2022/03/15 08:25:13;;;;;;;38.35;20.73;;;;;;;5.60;100.00;102668.44;5012102;28;20222;-47
2022/03/15 08:27:39;;;;;;;43.47;22.67;;;;;;;5.44;100.00;102671.75;5012098;28;20299;-47
2022/03/15 08:30:05;;;;;;;44.95;22.30;;;;;;;5.55;100.00;102667.47;5012045;28;20251;-50
2022/03/15 08:32:31;;;;;;;43.30;23.88;;;;;;;5.42;100.00;102674.38;5011504;28;20169;-45
2022/03/15 08:34:56;;;;;;;53.22;24.15;;;;;;;5.40;100.00;102676.16;5011531;28;20539;-44
2022/03/15 08:37:22;;;;;;;47.00;24.10;;;;;;;5.49;100.00;102670.97;5012069;28;20179;-44
2022/03/15 08:39:47;;;;;;;44.65;23.30;;;;;;;5.70;100.00;102662.31;5030707;28;20588;-46
2022/03/15 08:42:14;;;;;;;44.22;24.70;;;;;;;5.81;100.00;102665.09;5030493;28;20168;-47
2022/03/15 08:44:39;;;;;;;41.25;22.02;;;;;;;5.82;100.00;102669.56;5030891;28;20242;-46
2022/03/15 08:47:05;;;;;;;42.60;20.23;;;;;;;5.97;100.00;102666.22;5030974;28;20203;-45
2022/03/15 08:49:30;;;;;;;40.63;20.13;;;;;;;6.02;100.00;102666.25;5023799;28;20239;-45
2022/03/15 08:51:56;;;;;;;33.92;19.02;;;;;;;6.52;100.00;102664.06;5050810;28;20185;-46
2022/03/15 08:54:22;;;;;;;35.90;19.95;;;;;;;6.07;100.00;102665.41;5050554;28;20203;-45
2022/03/15 08:56:48;;;;;;;37.58;20.98;;;;;;;6.11;100.00;102664.56;5051086;28;20250;-48
2022/03/15 08:59:15;;;;;;;32.45;19.45;;;;;;;6.26;100.00;102663.84;5049599;28;20637;-45
2022/03/15 09:01:44;;;;;;;41.88;19.73;;;;;;;6.07;100.00;102675.16;5050756;28;20163;-44
2022/03/15 09:04:10;;;;;;;39.10;21.35;;;;;;;5.96;100.00;102667.06;5033039;28;20320;-51
2022/03/15 09:06:36;;;;;;;39.47;21.85;;;;;;;6.13;100.00;102656.63;5011066;28;20299;-46
2022/03/15 09:09:01;;;;;;;37.38;22.48;;;;;;;6.18;100.00;102658.41;5011098;28;20730;-44
2022/03/15 09:11:29;;;;;;;34.70;21.70;;;;;;;6.22;100.00;102662.00;5010951;28;20180;-46
2022/03/15 09:13:54;;;;;;;42.33;21.58;;;;;;;6.31;100.00;102653.22;5010922;28;20565;-48
2022/03/15 09:16:20;;;;;;;33.72;20.15;;;;;;;6.56;100.00;102657.00;5009398;28;20188;-48
2022/03/15 09:18:46;;;;;;;36.22;20.02;;;;;;;6.52;99.67;102658.72;5010383;28;20252;-44
2022/03/15 09:21:12;;;;;;;30.73;19.40;;;;;;;6.42;98.78;102651.53;5009739;28;20297;-44
2022/03/15 09:23:39;;;;;;;39.47;18.80;;;;;;;6.57;99.09;102659.66;5010345;28;20607;-43
2022/03/15 09:26:05;;;;;;;38.25;19.35;;;;;;;6.55;98.35;102649.88;5010718;28;20576;-49
2022/03/15 09:28:30;;;;;;;29.33;18.05;;;;;;;6.68;98.84;102654.41;5010824;28;20181;-46
2022/03/15 09:30:56;;;;;;;34.92;18.05;;;;;;;6.68;98.93;102649.06;5010345;28;20176;-44
2022/03/15 09:33:23;;;;;;;30.75;17.60;;;;;;;6.72;98.86;102650.88;5010031;28;20205;-45
2022/03/15 09:35:49;;;;;;;31.60;16.80;;;;;;;6.88;98.23;102648.31;5010247;28;20160;-44
2022/03/15 09:38:15;;;;;;;29.45;17.80;;;;;;;7.38;97.58;102639.69;5010638;28;20181;-45
2022/03/15 09:40:42;;;;;;;30.80;18.05;;;;;;;7.43;96.19;102641.53;5009189;28;20172;-45
2022/03/15 09:43:11;;;;;;;27.90;18.02;;;;;;;7.56;95.28;102625.53;5009991;28;20226;-44
2022/03/15 09:45:38;;;;;;;30.92;18.42;;;;;;;7.49;93.60;102631.75;5024588;28;20203;-46
2022/03/15 09:48:11;;;;;;;28.60;18.35;;;;;;;7.32;93.47;102635.22;5616220;22;20306;-43
2022/03/15 09:50:40;;;;;;;31.50;19.25;;;;;;;7.09;94.05;102640.47;5043069;28;20180;-45
2022/03/15 09:53:05;;;;;;;29.95;19.35;;;;;;;7.12;93.79;102635.13;5047560;28;20198;-44
2022/03/15 09:55:31;;;;;;;28.33;18.63;;;;;;;7.10;93.45;102625.34;5049973;28;20187;-43
2022/03/15 09:57:57;;;;;;;27.70;17.92;;;;;;;7.41;93.47;102627.28;5049216;28;20175;-44
2022/03/15 10:00:23;;;;;;;34.00;18.58;;;;;;;7.26;93.35;102616.56;5048937;28;20581;-43
2022/03/15 10:02:48;;;;;;;30.00;17.95;;;;;;;7.06;94.09;102619.09;5049471;28;20199;-44
2022/03/15 10:05:14;;;;;;;30.70;18.80;;;;;;;7.81;93.75;102616.72;5049244;28;20202;-43
2022/03/15 10:07:40;;;;;;;29.05;18.13;;;;;;;7.77;92.37;102604.25;5049556;28;20167;-44
2022/03/15 10:10:10;;;;;;;26.75;18.20;;;;;;;7.04;92.58;102609.31;5049503;28;20190;-44
2022/03/15 10:12:36;;;;;;;24.92;17.27;;;;;;;7.14;93.75;102608.50;5049257;28;20172;-44
2022/03/15 10:15:16;;;;;;;29.90;16.98;;;;;;;7.54;93.48;102601.56;5048555;28;20167;-43
2022/03/15 10:17:43;;;;;;;24.85;15.02;;;;;;;7.91;93.00;102611.38;5048693;28;20637;-44
2022/03/15 10:20:09;;;;;;;23.85;13.88;;;;;;;7.73;92.47;102598.91;5049052;28;20173;-43
2022/03/15 10:22:35;;;;;;;26.00;15.73;;;;;;;7.60;91.89;102596.22;5046655;28;20183;-47
2022/03/15 10:25:02;;;;;;;24.23;14.52;;;;;;;7.89;91.52;102606.03;5045259;28;20175;-45
2022/03/15 10:27:28;;;;;;;22.15;13.57;;;;;;;7.64;91.23;102602.44;5047313;28;20650;-43
2022/03/15 10:29:53;;;;;;;24.17;13.68;;;;;;;7.52;91.67;102591.75;5049433;28;20163;-43
2022/03/15 10:32:19;;;;;;;26.17;14.70;;;;;;;7.67;91.87;102602.44;5048953;28;20186;-43
2022/03/15 10:34:44;;;;;;;23.95;14.82;;;;;;;7.95;91.68;102598.06;5049240;28;20836;-44
2022/03/15 10:37:11;;;;;;;27.88;15.38;;;;;;;8.10;91.39;102594.50;5049463;28;20526;-43
2022/03/15 10:39:37;;;;;;;29.33;15.15;;;;;;;8.45;90.67;102597.19;5049260;28;20550;-45
2022/03/15 10:42:05;;;;;;;25.25;14.18;;;;;;;8.74;89.19;102596.25;5049803;28;20179;-45
2022/03/15 10:44:34;;;;;;;29.27;15.15;;;;;;;8.75;87.16;102579.34;5049409;28;20191;-43
2022/03/15 10:47:11;;;;;;;25.17;13.52;;;;;;;8.88;87.01;102577.53;5049314;28;20518;-42
2022/03/15 10:49:52;;;;;;;24.38;13.93;;;;;;;8.98;85.31;102584.59;5049150;28;20240;-45
2022/03/15 10:52:35;;;;;;;25.55;14.32;;;;;;;8.58;86.47;102575.81;5049439;28;20165;-45
2022/03/15 10:55:25;;;;;;;24.02;13.98;;;;;;;8.98;85.47;102560.53;5049935;28;20168;-45
2022/03/15 10:58:05;;;;;;;23.05;13.07;;;;;;;8.92;85.39;102568.63;5049913;28;20163;-44
2022/03/15 11:00:35;;;;;;;22.85;13.07;;;;;;;8.83;84.96;102571.28;5049904;28;20160;-44
2022/03/15 11:03:02;;;;;;;24.50;12.85;;;;;;;8.69;84.33;102565.13;5049092;28;20398;-42
2022/03/15 11:05:33;;;;;;;23.40;12.70;;;;;;;8.62;84.50;102559.78;5029345;28;20204;-47
2022/03/15 11:08:15;;;;;;;23.42;13.00;;;;;;;9.13;84.14;102543.56;5029633;28;20430;-44